Time;durP1;ratioP1;P1;durP2;ratioP2;P2;SDS_P1;SDS_P2;PMS_P1;PMS_P2;Temp;Humidity;BMP_temperature;BMP_pressure;BME280_temperature;BME280_humidity;BME280_pressure;Samples;Min_cycle;Max_cycle;Signal;HPM_P1;HPM_P2
2023/01/13 00:01:48;;;;;;;8.30;5.60;;;;;;;3.51;71.42;95129.19;5112318;28;20036;-71
2023/01/13 00:04:14;;;;;;;7.32;5.05;;;;;;;3.46;71.75;95132.00;5113040;28;20035;-70
2023/01/13 00:06:39;;;;;;;7.63;5.50;;;;;;;3.45;71.60;95127.75;5111053;28;20038;-70
2023/01/13 00:09:05;;;;;;;8.98;7.63;;;;;;;3.23;71.89;95096.34;5110822;28;20476;-71
2023/01/13 00:11:30;;;;;;;8.00;5.97;;;;;;;3.43;72.13;95129.59;5110859;28;20023;-70
2023/01/13 00:13:56;;;;;;;7.28;5.13;;;;;;;3.40;71.88;95123.75;5112155;28;20031;-70
2023/01/13 00:16:21;;;;;;;8.20;5.45;;;;;;;3.42;71.85;95143.31;5110840;28;20035;-71
2023/01/13 00:18:47;;;;;;;12.25;7.80;;;;;;;3.42;71.80;95122.78;5111131;28;20031;-70
2023/01/13 00:21:16;;;;;;;10.85;6.50;;;;;;;3.46;71.80;95139.72;5127447;27;20040;-70
2023/01/13 00:23:41;;;;;;;9.95;6.07;;;;;;;3.41;72.12;95130.56;5109697;28;20043;-71
2023/01/13 00:26:24;;;;;;;9.45;6.20;;;;;;;3.41;71.85;95135.72;5110641;28;20023;-70
2023/01/13 00:28:49;;;;;;;7.47;5.55;;;;;;;3.42;71.85;95138.19;5093202;28;20043;-71
2023/01/13 00:31:17;;;;;;;7.18;5.60;;;;;;;3.53;71.65;95135.91;5111004;28;20034;-70
2023/01/13 00:33:42;;;;;;;8.48;5.57;;;;;;;3.50;71.41;95135.25;5077088;28;20047;-71
2023/01/13 00:36:09;;;;;;;10.13;7.30;;;;;;;3.41;71.98;95130.56;5093950;28;20089;-70
2023/01/13 00:38:36;;;;;;;9.88;6.35;;;;;;;3.46;71.98;95144.84;5093793;28;20112;-71
2023/01/13 00:41:12;;;;;;;9.63;6.60;;;;;;;3.44;72.15;95136.38;5092542;28;20478;-71
2023/01/13 00:43:38;;;;;;;9.82;5.78;;;;;;;3.40;72.08;95142.59;5093508;28;20027;-71
2023/01/13 00:46:04;;;;;;;8.45;5.70;;;;;;;3.24;72.08;95110.88;5090087;28;20031;-72
2023/01/13 00:48:30;;;;;;;6.85;5.32;;;;;;;3.47;71.92;95135.41;5073162;28;20020;-70
2023/01/13 00:50:59;;;;;;;8.20;5.45;;;;;;;3.48;72.05;95137.91;5090115;28;20149;-71
2023/01/13 00:53:24;;;;;;;8.80;5.45;;;;;;;3.49;71.82;95137.00;5072979;28;20032;-70
2023/01/13 00:56:00;;;;;;;9.18;5.97;;;;;;;3.32;72.51;95116.47;5092403;28;20027;-70
2023/01/13 00:58:26;;;;;;;7.47;5.35;;;;;;;3.50;71.92;95136.06;5111409;28;20058;-71
2023/01/13 01:00:51;;;;;;;7.72;5.78;;;;;;;3.49;72.00;95128.47;5093341;28;20028;-70
2023/01/13 01:03:17;;;;;;;9.10;6.05;;;;;;;3.50;71.82;95125.78;5110156;28;20040;-70
2023/01/13 01:05:42;;;;;;;9.02;5.60;;;;;;;3.54;71.46;95131.63;5093466;28;20019;-70
2023/01/13 01:08:07;;;;;;;9.90;6.78;;;;;;;3.53;71.48;95125.63;5110432;28;20420;-71
2023/01/13 01:10:33;;;;;;;9.88;6.60;;;;;;;3.52;71.74;95118.84;5111144;27;20032;-71
2023/01/13 01:12:58;;;;;;;9.23;6.57;;;;;;;3.44;71.85;95109.88;5109926;28;20058;-71
2023/01/13 01:15:24;;;;;;;8.98;6.78;;;;;;;3.51;71.58;95114.63;5093248;28;20511;-71
2023/01/13 01:17:49;;;;;;;9.60;7.15;;;;;;;3.47;71.49;95096.88;5110999;28;20035;-71
2023/01/13 01:20:15;;;;;;;10.23;6.88;;;;;;;3.55;71.36;95113.56;5144252;27;20040;-70
2023/01/13 01:22:41;;;;;;;10.40;7.85;;;;;;;3.53;71.65;95117.94;5110021;28;20024;-71
2023/01/13 01:25:07;;;;;;;11.50;7.78;;;;;;;3.47;71.96;95115.69;5109957;28;20545;-70
2023/01/13 01:27:32;;;;;;;12.00;7.72;;;;;;;3.43;71.83;95105.66;5093405;28;20448;-70
2023/01/13 01:29:58;;;;;;;10.85;7.53;;;;;;;3.51;71.57;95117.19;5076539;28;20071;-70
2023/01/13 01:32:23;;;;;;;10.65;8.20;;;;;;;3.46;71.89;95118.34;5092265;28;20114;-70
2023/01/13 01:34:50;;;;;;;8.80;6.97;;;;;;;3.55;71.19;95118.69;5112364;28;20031;-70
2023/01/13 01:37:15;;;;;;;8.18;5.88;;;;;;;3.51;71.48;95106.06;5097166;28;20489;-71
2023/01/13 01:39:40;;;;;;;8.70;5.85;;;;;;;3.62;70.99;95111.50;5097233;28;20035;-71
2023/01/13 01:44:57;;;;;;;6.78;5.20;;;;;;;3.58;71.18;95097.16;5114584;28;20035;-71
2023/01/13 01:47:23;;;;;;;10.13;7.32;;;;;;;3.51;71.08;95096.66;5097740;28;20179;-71
2023/01/13 01:49:48;;;;;;;9.05;6.65;;;;;;;3.42;71.37;95086.81;5096962;28;20043;-71
2023/01/13 01:52:18;;;;;;;9.18;5.97;;;;;;;3.55;71.71;95097.31;5113879;28;20408;-71
2023/01/13 01:55:04;;;;;;;7.72;5.47;;;;;;;3.61;71.08;95101.31;5114013;28;20032;-71
2023/01/13 01:57:57;;;;;;;8.65;5.57;;;;;;;3.49;70.90;95088.19;5114036;28;20107;-71
2023/01/13 02:00:23;;;;;;;7.22;5.10;;;;;;;3.55;71.04;95099.88;5099195;28;20096;-71
2023/01/13 02:02:49;;;;;;;7.47;5.18;;;;;;;3.51;71.13;95096.66;5096864;28;20066;-71
2023/01/13 02:05:14;;;;;;;7.07;4.90;;;;;;;3.56;71.12;95099.78;5096939;28;20031;-72
2023/01/13 02:07:41;;;;;;;8.23;5.35;;;;;;;3.57;71.22;95101.47;5113616;28;20047;-71
2023/01/13 02:10:08;;;;;;;7.78;5.20;;;;;;;3.40;71.74;95096.38;5095572;28;20032;-71
2023/01/13 02:12:33;;;;;;;9.73;5.18;;;;;;;3.49;71.19;95105.34;5096862;28;20028;-71
2023/01/13 02:15:24;;;;;;;6.72;4.97;;;;;;;3.44;71.34;95097.03;5113654;28;20030;-71
2023/01/13 02:18:02;;;;;;;6.82;4.43;;;;;;;3.55;70.98;95098.13;5109207;28;20035;-70
2023/01/13 02:20:45;;;;;;;7.30;5.75;;;;;;;3.39;71.09;95086.97;5113220;28;20535;-71
2023/01/13 02:26:20;;;;;;;6.70;4.95;;;;;;;3.43;71.43;95097.94;5094374;28;20093;-71
2023/01/13 02:31:42;;;;;;;10.80;5.65;;;;;;;3.34;71.64;95081.22;5114052;28;20564;-71
2023/01/13 02:34:14;;;;;;;8.23;5.28;;;;;;;3.36;71.43;95098.22;5113304;28;20035;-71
2023/01/13 02:36:55;;;;;;;7.38;5.07;;;;;;;3.43;71.04;95085.09;5112708;28;20043;-71
2023/01/13 02:39:57;;;;;;;7.83;6.00;;;;;;;3.48;71.47;95096.81;5113156;28;20552;-71
2023/01/13 02:45:57;;;;;;;8.20;5.38;;;;;;;3.44;71.31;95100.41;5112815;28;19941;-71
2023/01/13 02:48:22;;;;;;;7.03;4.65;;;;;;;3.28;71.44;95091.81;5108607;28;20032;-71
2023/01/13 02:51:05;;;;;;;8.05;5.97;;;;;;;3.26;71.66;95093.63;5083270;28;20038;-71
2023/01/13 02:53:35;;;;;;;7.18;5.60;;;;;;;3.26;71.90;95106.47;5096059;28;20074;-71
2023/01/13 02:56:02;;;;;;;7.40;5.07;;;;;;;3.28;71.96;95092.66;5066055;28;20243;-71
2023/01/13 02:58:28;;;;;;;7.80;5.32;;;;;;;3.31;71.90;95094.22;5092389;28;20069;-71
2023/01/13 03:00:53;;;;;;;8.18;6.03;;;;;;;3.34;71.59;95094.06;5078679;28;20033;-72
2023/01/13 03:03:19;;;;;;;7.85;5.43;;;;;;;3.09;72.65;95094.47;5094220;28;20078;-71
2023/01/13 03:05:45;;;;;;;8.68;5.88;;;;;;;3.03;72.82;95089.63;5113290;28;20042;-71
2023/01/13 03:08:29;;;;;;;6.95;4.85;;;;;;;3.14;72.43;95092.50;5091628;28;20066;-71
2023/01/13 03:11:07;;;;;;;6.85;4.75;;;;;;;3.21;72.01;95091.31;5096501;28;20027;-71
2023/01/13 03:13:36;;;;;;;7.03;4.93;;;;;;;3.31;72.21;95096.78;5111883;28;20023;-71
2023/01/13 03:16:20;;;;;;;8.15;5.20;;;;;;;3.28;72.04;95086.69;5113382;28;20048;-71
2023/01/13 03:18:48;;;;;;;6.70;4.82;;;;;;;3.32;72.01;95093.34;5111870;28;20039;-71
2023/01/13 03:21:35;;;;;;;6.75;4.82;;;;;;;3.39;71.87;95091.28;5112724;28;20038;-71
2023/01/13 03:24:03;;;;;;;7.47;5.55;;;;;;;3.43;71.45;95090.25;5110068;28;20028;-71
2023/01/13 03:26:42;;;;;;;8.18;6.47;;;;;;;3.34;71.96;95089.78;5113155;28;20425;-71
2023/01/13 03:29:10;;;;;;;8.27;6.05;;;;;;;3.35;71.49;95093.19;5095458;28;20126;-71
2023/01/13 03:31:43;;;;;;;7.18;5.38;;;;;;;3.39;71.58;95097.25;5113086;28;20028;-71
2023/01/13 03:34:16;;;;;;;7.60;5.28;;;;;;;3.42;71.66;95098.84;5094833;28;20034;-71
2023/01/13 03:36:42;;;;;;;6.50;4.75;;;;;;;3.22;72.03;95095.53;5089741;28;20031;-71
2023/01/13 03:39:10;;;;;;;6.38;5.40;;;;;;;3.23;71.94;95097.19;5092057;28;20496;-71
2023/01/13 03:41:38;;;;;;;7.07;5.30;;;;;;;3.31;71.63;95101.94;5078028;28;20035;-71
2023/01/13 03:44:21;;;;;;;9.18;5.68;;;;;;;3.31;71.54;95104.50;5112061;28;20035;-71
2023/01/13 03:46:56;;;;;;;8.65;6.18;;;;;;;3.35;71.46;95101.72;5074876;28;20378;-71
2023/01/13 03:49:23;;;;;;;7.88;5.90;;;;;;;3.23;71.91;95098.91;5109404;28;20482;-71
2023/01/13 03:51:52;;;;;;;6.20;4.72;;;;;;;3.26;71.66;95107.31;5077470;28;20114;-71
2023/01/13 03:54:18;;;;;;;6.65;4.60;;;;;;;3.36;71.51;95103.38;5094752;28;20110;-71
2023/01/13 03:56:48;;;;;;;8.77;4.97;;;;;;;3.36;71.27;95093.09;5111132;28;20130;-71
2023/01/13 03:59:19;;;;;;;9.38;5.03;;;;;;;3.25;71.55;95081.69;5110564;28;20032;-71
2023/01/13 04:02:29;;;;;;;8.50;5.47;;;;;;;3.47;71.42;95102.00;5112365;28;20155;-71
2023/01/13 04:04:59;;;;;;;7.57;4.93;;;;;;;3.41;71.30;95100.56;5101249;28;20036;-71
2023/01/13 04:07:49;;;;;;;6.13;4.70;;;;;;;3.34;71.59;95110.34;5094309;28;20065;-71
2023/01/13 04:10:51;;;;;;;6.45;4.60;;;;;;;3.38;71.70;95100.75;5110388;28;20096;-71
2023/01/13 04:13:17;;;;;;;;;;;;;;;3.35;71.77;95108.59;5076242;28;20048;-71
2023/01/13 04:15:44;;;;;;;7.13;4.72;;;;;;;3.20;71.67;95081.91;5110972;28;19915;-72
2023/01/13 04:18:16;;;;;;;7.18;4.60;;;;;;;3.33;71.83;95098.38;5110845;28;20024;-71
2023/01/13 04:20:42;;;;;;;7.65;4.70;;;;;;;3.36;71.83;95103.38;5111937;28;20468;-71
2023/01/13 04:23:08;;;;;;;6.68;4.85;;;;;;;3.31;71.65;95115.59;5077262;28;20127;-71
2023/01/13 04:25:33;;;;;;;6.82;4.93;;;;;;;3.26;71.51;95119.31;5092952;28;20035;-71
2023/01/13 04:27:59;;;;;;;6.05;3.85;;;;;;;3.29;71.79;95121.75;5076792;28;20035;-71
2023/01/13 04:30:24;;;;;;;5.95;4.25;;;;;;;3.38;71.77;95116.16;5111941;28;20051;-71
2023/01/13 04:32:50;;;;;;;7.10;4.80;;;;;;;3.45;71.44;95122.63;5111019;28;20042;-71
2023/01/13 04:35:15;;;;;;;6.82;4.40;;;;;;;3.47;71.45;95120.81;5093231;28;20390;-71
2023/01/13 04:37:40;;;;;;;6.88;4.82;;;;;;;3.47;71.28;95125.13;5111708;28;20092;-71
2023/01/13 04:40:07;;;;;;;6.50;4.65;;;;;;;3.44;71.56;95120.97;5111525;28;20044;-71
2023/01/13 04:42:32;;;;;;;7.60;6.53;;;;;;;3.50;71.62;95120.66;5110699;28;20050;-71
2023/01/13 04:44:58;;;;;;;7.80;5.50;;;;;;;3.53;71.46;95125.63;5128107;27;20035;-71
2023/01/13 04:47:23;;;;;;;11.05;9.43;;;;;;;3.52;71.35;95118.84;5091571;28;20456;-71
2023/01/13 04:49:48;;;;;;;10.77;7.78;;;;;;;3.56;71.24;95119.50;5124345;27;20051;-71
2023/01/13 04:52:14;;;;;;;6.53;5.07;;;;;;;3.50;71.26;95122.41;5090154;28;20039;-72
2023/01/13 04:54:39;;;;;;;7.40;5.20;;;;;;;3.38;71.42;95117.88;5124067;27;20085;-71
2023/01/13 04:57:05;;;;;;;6.45;4.47;;;;;;;3.49;71.48;95123.31;5090232;28;20023;-71
2023/01/13 04:59:30;;;;;;;17.33;9.40;;;;;;;3.50;71.15;95128.38;5144107;27;20058;-71
2023/01/13 05:01:56;;;;;;;21.23;10.60;;;;;;;3.35;71.80;95129.97;5127808;27;20038;-71
2023/01/13 05:04:21;;;;;;;15.65;8.68;;;;;;;3.44;71.52;95128.69;5110574;28;20043;-71
2023/01/13 05:06:46;;;;;;;14.82;8.50;;;;;;;3.44;71.51;95122.72;5110634;28;20043;-71
2023/01/13 05:09:14;;;;;;;14.35;9.65;;;;;;;3.42;71.42;95127.91;5110267;28;20047;-71
2023/01/13 05:17:08;;;;;;;8.48;5.70;;;;;;;3.44;71.61;95130.41;5111170;28;20089;-71
2023/01/13 05:19:34;;;;;;;8.25;5.60;;;;;;;3.43;71.54;95136.47;5090487;28;20066;-71
2023/01/13 05:27:28;;;;;;;7.35;4.63;;;;;;;3.35;72.03;95131.72;5108998;28;20468;-71
2023/01/13 05:29:54;;;;;;;7.05;4.80;;;;;;;3.39;72.06;95138.34;5126978;28;20083;-70
2023/01/13 05:32:21;;;;;;;6.75;5.15;;;;;;;3.37;71.86;95124.75;5108896;28;20485;-72
2023/01/13 05:34:46;;;;;;;10.95;7.32;;;;;;;3.43;72.17;95137.31;5075651;28;20048;-72
2023/01/13 05:37:12;;;;;;;11.88;7.82;;;;;;;3.34;71.97;95124.88;5071292;28;20027;-72
2023/01/13 05:45:07;;;;;;;32.17;14.80;;;;;;;3.32;72.32;95142.13;5105231;28;20140;-72
2023/01/13 05:47:32;;;;;;;14.32;7.32;;;;;;;3.31;72.03;95136.16;5105254;28;20027;-72
2023/01/13 05:49:58;;;;;;;7.25;5.18;;;;;;;3.30;72.00;95146.50;5103517;28;20412;-72
2023/01/13 05:52:23;;;;;;;8.15;5.10;;;;;;;3.28;72.13;95135.47;5086986;28;20027;-72
2023/01/13 05:54:49;;;;;;;7.63;5.88;;;;;;;3.27;72.15;95124.38;5102923;28;20481;-72
2023/01/13 05:57:15;;;;;;;9.45;6.47;;;;;;;3.35;72.51;95150.50;5107687;28;20083;-73
2023/01/13 05:59:41;;;;;;;7.90;5.80;;;;;;;3.31;72.41;95138.72;5088940;28;20034;-72
2023/01/13 06:02:06;;;;;;;9.15;5.85;;;;;;;3.35;72.39;95144.56;5106628;28;20053;-72
2023/01/13 06:04:32;;;;;;;6.97;5.43;;;;;;;3.33;72.52;95151.50;5087234;28;20038;-72
2023/01/13 06:06:57;;;;;;;7.88;5.60;;;;;;;3.35;72.60;95152.25;5088952;28;20268;-72
2023/01/13 06:09:22;;;;;;;9.38;5.82;;;;;;;3.35;72.75;95154.81;5105723;28;20092;-72
2023/01/13 06:11:48;;;;;;;8.30;6.03;;;;;;;3.29;72.81;95137.97;5107107;28;20082;-72
2023/01/13 06:14:13;;;;;;;9.73;6.25;;;;;;;3.28;72.92;95149.13;5087049;28;20038;-72
2023/01/13 06:16:39;;;;;;;11.88;7.32;;;;;;;3.30;72.76;95160.16;5107356;28;20050;-72
2023/01/13 06:19:07;;;;;;;18.88;10.02;;;;;;;3.13;72.78;95157.59;5088135;28;20031;-72
2023/01/13 06:21:34;;;;;;;16.63;9.50;;;;;;;3.25;72.72;95169.00;5105513;28;20537;-72
2023/01/13 06:23:59;;;;;;;16.25;8.70;;;;;;;3.18;73.00;95160.78;5091236;28;20028;-72
2023/01/13 06:26:25;;;;;;;12.10;8.25;;;;;;;3.31;72.71;95168.69;5092979;28;20374;-72
2023/01/13 06:28:50;;;;;;;30.40;16.80;;;;;;;3.34;72.81;95168.56;5092459;28;20056;-72
2023/01/13 06:31:16;;;;;;;42.80;26.17;;;;;;;3.29;72.78;95157.69;5091803;28;20460;-72
2023/01/13 06:33:47;;;;;;;21.65;13.85;;;;;;;3.30;72.72;95147.34;5090665;28;20071;-72
2023/01/13 06:36:18;;;;;;;19.77;11.18;;;;;;;3.42;72.78;95163.88;5093130;28;20035;-72
2023/01/13 06:38:45;;;;;;;21.05;13.73;;;;;;;3.50;72.21;95145.53;5092135;28;20047;-72
2023/01/13 06:41:10;;;;;;;19.55;13.45;;;;;;;3.52;72.21;95165.09;5092356;28;20101;-72
2023/01/13 06:43:37;;;;;;;15.93;10.77;;;;;;;3.51;71.79;95153.16;5090175;28;20032;-72
2023/01/13 06:46:02;;;;;;;12.77;9.32;;;;;;;3.56;71.78;95156.31;5109453;28;20080;-72
2023/01/13 06:48:31;;;;;;;14.30;9.35;;;;;;;3.69;71.47;95168.56;5091467;28;20028;-72
2023/01/13 06:50:57;;;;;;;14.75;9.85;;;;;;;3.68;71.72;95175.44;5092732;28;20122;-72
2023/01/13 06:53:23;;;;;;;21.85;12.55;;;;;;;3.67;71.77;95171.19;5107091;28;20146;-72
2023/01/13 06:55:48;;;;;;;14.63;10.38;;;;;;;3.66;71.70;95161.00;5109180;28;20053;-72
2023/01/13 06:58:14;;;;;;;12.77;9.63;;;;;;;3.76;71.17;95177.59;5110738;28;20374;-72
2023/01/13 07:00:39;;;;;;;12.57;9.20;;;;;;;3.75;70.81;95165.69;5108954;28;20035;-72
2023/01/13 07:03:12;;;;;;;13.48;8.82;;;;;;;3.71;71.10;95161.63;5108028;28;20032;-72
2023/01/13 07:05:38;;;;;;;10.90;8.13;;;;;;;3.85;71.25;95177.16;5108795;28;20053;-72
2023/01/13 07:08:04;;;;;;;11.45;8.02;;;;;;;3.79;70.74;95167.19;5091447;28;20023;-72
2023/01/13 07:10:30;;;;;;;11.55;8.43;;;;;;;3.93;70.65;95177.59;5090110;28;20505;-72
2023/01/13 07:15:40;;;;;;;12.10;7.90;;;;;;;4.00;70.22;95168.66;5093560;28;20043;-72
2023/01/13 07:18:05;;;;;;;10.35;7.68;;;;;;;4.07;69.85;95173.47;5108860;28;20036;-72
2023/01/13 07:20:30;;;;;;;12.40;7.97;;;;;;;4.08;70.12;95167.44;5109147;28;20478;-72
2023/01/13 07:22:56;;;;;;;14.18;10.20;;;;;;;4.01;70.64;95170.34;5106981;28;20413;-72
2023/01/13 07:25:22;;;;;;;18.30;11.25;;;;;;;4.01;70.55;95169.47;5107644;28;20033;-73
2023/01/13 07:27:47;;;;;;;14.45;9.65;;;;;;;4.06;70.35;95174.41;5106766;28;20038;-72
2023/01/13 07:30:13;;;;;;;16.60;10.70;;;;;;;4.09;70.24;95166.53;5109151;28;20491;-72
2023/01/13 07:32:38;;;;;;;17.05;10.88;;;;;;;4.12;70.30;95163.78;5090834;28;20023;-71
2023/01/13 07:35:04;;;;;;;14.30;9.65;;;;;;;4.30;69.75;95169.72;5122428;27;20038;-72
2023/01/13 07:37:33;;;;;;;16.13;10.60;;;;;;;4.26;69.50;95156.19;5072668;27;20031;-71
2023/01/13 07:39:58;;;;;;;13.80;9.23;;;;;;;4.29;69.58;95156.03;5106649;28;20715;-71
2023/01/13 07:45:08;;;;;;;15.27;10.68;;;;;;;4.31;69.95;95161.91;5108018;28;20046;-71
2023/01/13 07:47:34;;;;;;;12.40;9.20;;;;;;;4.40;69.51;95164.03;5089463;28;20043;-71
2023/01/13 07:49:59;;;;;;;16.80;10.23;;;;;;;4.35;69.87;95166.00;5107997;28;20031;-71
2023/01/13 07:52:25;;;;;;;16.08;10.88;;;;;;;4.48;68.74;95161.88;5107963;27;20027;-71
2023/01/13 07:54:50;;;;;;;15.13;10.50;;;;;;;4.44;69.24;95165.50;5104749;28;20106;-71
2023/01/13 07:57:16;;;;;;;14.90;9.45;;;;;;;4.58;68.58;95163.94;5089129;28;20033;-71
2023/01/13 07:59:41;;;;;;;17.08;11.65;;;;;;;4.61;68.86;95171.50;5106697;28;20531;-71
2023/01/13 08:02:10;;;;;;;17.75;11.20;;;;;;;4.63;69.03;95164.53;5106133;27;20024;-71
2023/01/13 08:04:35;;;;;;;14.35;11.05;;;;;;;4.63;68.90;95165.34;5092389;27;20032;-72
2023/01/13 08:07:01;;;;;;;17.42;11.27;;;;;;;4.68;68.57;95170.25;5123686;27;20101;-71
2023/01/13 08:09:26;;;;;;;32.85;18.65;;;;;;;4.74;68.60;95176.84;5070887;28;20027;-70
2023/01/13 08:14:39;;;;;;;15.77;10.02;;;;;;;4.93;68.11;95175.75;5095765;28;20042;-71
2023/01/13 08:17:06;;;;;;;14.15;8.88;;;;;;;4.97;67.48;95173.00;5113312;27;20024;-71
2023/01/13 08:19:31;;;;;;;13.48;8.48;;;;;;;5.02;66.88;95181.28;5075494;28;20030;-71
2023/01/13 08:21:56;;;;;;;13.10;8.70;;;;;;;5.10;66.44;95177.38;5076794;28;20028;-71
2023/01/13 08:24:22;;;;;;;12.45;7.70;;;;;;;5.21;65.89;95176.78;5110387;28;20069;-71
2023/01/13 08:26:47;;;;;;;12.00;8.32;;;;;;;5.27;65.83;95176.44;5111040;28;20486;-70
2023/01/13 08:29:13;;;;;;;11.00;8.00;;;;;;;5.31;66.22;95174.50;5110286;28;20472;-71
2023/01/13 08:31:38;;;;;;;11.05;8.15;;;;;;;5.41;66.11;95174.84;5091813;28;20035;-71
2023/01/13 08:34:04;;;;;;;14.18;8.93;;;;;;;5.40;65.83;95173.16;5108741;28;20039;-70
2023/01/13 08:36:29;;;;;;;11.63;8.75;;;;;;;5.44;65.62;95172.09;5091949;28;20019;-71
2023/01/13 08:38:54;;;;;;;11.90;8.57;;;;;;;5.63;65.65;95167.53;5090828;28;20420;-71
2023/01/13 08:41:53;;;;;;;12.85;8.65;;;;;;;5.70;65.09;95160.25;5091640;28;20456;-70
2023/01/13 08:44:07;;;;;;;14.98;9.20;;;;;;;5.92;64.06;95160.66;5110945;28;20122;-71
2023/01/13 08:46:33;;;;;;;13.00;9.48;;;;;;;5.92;64.64;95163.25;5111674;28;20106;-71
2023/01/13 08:48:58;;;;;;;13.25;9.25;;;;;;;5.98;64.75;95156.94;5112190;28;20595;-71
2023/01/13 08:51:24;;;;;;;10.88;7.70;;;;;;;6.11;63.68;95167.34;5110534;28;20386;-71
2023/01/13 08:53:49;;;;;;;10.73;7.50;;;;;;;6.15;63.31;95163.66;5093622;28;20046;-71
2023/01/13 08:56:15;;;;;;;14.95;9.13;;;;;;;5.93;63.08;95157.19;5076563;28;20020;-71
2023/01/13 08:58:41;;;;;;;14.63;8.03;;;;;;;5.87;65.78;95154.94;5110378;28;20077;-72
2023/01/13 09:01:07;;;;;;;11.73;7.68;;;;;;;6.12;65.37;95149.19;5110396;28;20405;-72
2023/01/13 09:03:32;;;;;;;11.60;7.72;;;;;;;6.23;64.65;95157.13;5110368;28;20036;-72
2023/01/13 09:05:58;;;;;;;10.93;7.03;;;;;;;6.10;63.43;95135.56;5110341;28;20031;-72
2023/01/13 09:08:24;;;;;;;13.07;7.93;;;;;;;6.36;63.01;95152.06;5093337;28;20035;-72
2023/01/13 09:10:49;;;;;;;13.32;7.50;;;;;;;6.44;62.90;95157.56;5110164;28;20073;-72
2023/01/13 09:13:15;;;;;;;11.13;7.30;;;;;;;6.50;62.87;95146.06;5110158;28;20085;-72
2023/01/13 09:15:45;;;;;;;9.45;6.88;;;;;;;6.66;62.68;95151.09;5111666;28;20482;-72
2023/01/13 09:18:11;;;;;;;16.60;9.80;;;;;;;6.77;61.60;95134.91;5093521;28;20409;-71
2023/01/13 09:20:36;;;;;;;12.38;7.32;;;;;;;6.76;61.53;95139.25;5110004;28;20024;-72
2023/01/13 09:23:02;;;;;;;8.63;5.95;;;;;;;6.80;60.49;95143.31;5093157;28;20035;-72
2023/01/13 09:25:28;;;;;;;8.55;6.63;;;;;;;6.74;62.30;95146.25;5110074;28;20032;-72
2023/01/13 09:27:53;;;;;;;10.95;7.18;;;;;;;6.78;61.81;95137.41;5092803;28;20058;-72
2023/01/13 09:30:19;;;;;;;8.10;5.47;;;;;;;6.77;61.36;95143.50;5111300;28;20038;-71
2023/01/13 09:32:44;;;;;;;17.20;11.63;;;;;;;6.76;61.57;95141.03;5109961;28;20065;-72
2023/01/13 09:35:09;;;;;;;10.02;5.80;;;;;;;6.75;60.45;95132.44;5110005;28;20019;-71
2023/01/13 09:37:37;;;;;;;10.32;7.00;;;;;;;6.66;59.89;95133.84;5109911;28;20425;-72
2023/01/13 09:40:09;;;;;;;6.72;4.70;;;;;;;6.61;60.34;95124.75;5127223;27;20562;-72
2023/01/13 09:45:51;;;;;;;10.60;5.50;;;;;;;6.75;60.36;95136.78;5125327;27;20054;-71
2023/01/13 09:48:31;;;;;;;8.30;4.63;;;;;;;6.68;60.29;95142.31;5109883;28;20023;-72
2023/01/13 09:51:13;;;;;;;8.25;5.82;;;;;;;6.63;61.27;95139.22;5092830;28;20073;-71
2023/01/13 09:53:42;;;;;;;10.63;7.47;;;;;;;6.64;61.39;95140.03;5143394;27;20020;-71
2023/01/13 09:56:09;;;;;;;14.82;7.53;;;;;;;6.48;60.77;95132.41;5128912;27;20035;-72
2023/01/13 09:58:34;;;;;;;12.02;8.75;;;;;;;6.52;61.57;95131.31;5096743;28;20038;-71
2023/01/13 10:01:18;;;;;;;12.32;9.38;;;;;;;6.47;61.74;95136.75;5096791;28;20035;-72
2023/01/13 10:03:44;;;;;;;11.82;7.22;;;;;;;6.32;61.82;95105.88;5113718;28;20028;-71
2023/01/13 10:06:12;;;;;;;10.15;6.97;;;;;;;6.43;62.27;95116.38;5096741;28;20036;-72
2023/01/13 10:08:38;;;;;;;10.40;6.20;;;;;;;6.45;60.52;95130.84;5113597;28;20039;-72
2023/01/13 10:14:32;;;;;;;10.07;6.43;;;;;;;6.39;61.96;95127.81;5128965;27;20046;-71
2023/01/13 10:17:22;;;;;;;14.07;8.60;;;;;;;6.31;62.34;95128.28;5113640;27;20050;-71
2023/01/13 10:19:48;;;;;;;16.13;11.02;;;;;;;6.28;62.49;95125.06;5114488;28;20042;-71
2023/01/13 10:22:31;;;;;;;18.35;12.57;;;;;;;6.31;62.64;95117.97;5114638;28;20027;-71
2023/01/13 10:25:08;;;;;;;10.98;8.40;;;;;;;6.36;62.72;95130.59;5114629;27;20122;-71
2023/01/13 10:27:40;;;;;;;8.40;5.50;;;;;;;6.31;61.22;95117.97;5113111;28;20098;-71
2023/01/13 10:30:30;;;;;;;9.82;5.75;;;;;;;6.26;62.15;95125.97;5096114;28;20048;-71
2023/01/13 10:33:12;;;;;;;8.23;5.10;;;;;;;6.22;62.62;95121.94;5113067;28;20055;-72
2023/01/13 10:35:48;;;;;;;13.40;7.97;;;;;;;6.23;62.33;95120.16;5130819;27;20106;-71
2023/01/13 10:38:44;;;;;;;17.42;9.68;;;;;;;6.27;62.69;95124.25;5096108;28;20441;-71
2023/01/13 10:41:15;;;;;;;12.07;6.78;;;;;;;6.31;63.13;95114.56;5096097;28;20569;-71
2023/01/13 10:43:41;;;;;;;7.78;5.50;;;;;;;6.27;62.70;95111.34;5114349;27;20061;-71
2023/01/13 10:46:17;;;;;;;9.23;5.93;;;;;;;6.30;61.93;95120.66;5112947;28;20032;-71
2023/01/13 10:48:46;;;;;;;8.30;5.57;;;;;;;6.17;62.16;95094.75;5112912;28;20035;-71
2023/01/13 10:51:14;;;;;;;8.73;5.28;;;;;;;6.32;61.89;95108.47;5112858;28;20111;-71
2023/01/13 10:53:51;;;;;;;11.80;7.05;;;;;;;6.24;61.64;95096.03;5112602;28;20150;-71
2023/01/13 10:56:17;;;;;;;13.57;6.80;;;;;;;6.18;62.20;95096.41;5129982;27;20027;-71
2023/01/13 10:58:43;;;;;;;12.73;7.18;;;;;;;6.23;62.21;95100.34;5112596;28;20549;-70
2023/01/13 11:01:16;;;;;;;9.00;5.25;;;;;;;6.25;61.93;95108.84;5078854;28;20039;-71
2023/01/13 11:03:43;;;;;;;10.73;6.38;;;;;;;6.12;61.03;95084.69;5113484;27;20032;-70
2023/01/13 11:06:09;;;;;;;11.02;7.13;;;;;;;6.17;62.03;95099.91;5095859;28;20020;-71
2023/01/13 11:08:44;;;;;;;9.18;6.50;;;;;;;6.05;61.90;95080.84;5111875;28;20043;-71
2023/01/13 11:11:42;;;;;;;11.55;6.72;;;;;;;6.09;62.69;95099.53;5130129;27;20024;-71
2023/01/13 11:14:31;;;;;;;21.98;10.48;;;;;;;6.13;63.09;95093.25;5049289;28;20044;-71
2023/01/13 11:16:57;;;;;;;13.38;8.23;;;;;;;6.16;62.97;95093.94;5097279;28;20028;-70
2023/01/13 11:19:23;;;;;;;10.95;7.35;;;;;;;6.14;62.48;95085.44;5108277;28;20378;-71
2023/01/13 11:21:52;;;;;;;7.75;5.57;;;;;;;6.13;62.62;95090.69;5094850;28;20074;-71
2023/01/13 11:24:27;;;;;;;8.55;5.63;;;;;;;6.09;63.15;95077.16;5113343;28;20035;-72
2023/01/13 11:27:00;;;;;;;10.55;6.00;;;;;;;6.11;63.51;95083.06;5111363;27;20479;-71
2023/01/13 11:29:35;;;;;;;52.63;25.38;;;;;;;6.05;63.73;95070.53;5108166;27;20060;-71
2023/01/13 11:32:08;;;;;;;15.25;8.73;;;;;;;6.08;63.39;95067.78;5089793;28;20378;-71
2023/01/13 11:34:35;;;;;;;15.80;11.57;;;;;;;6.19;62.86;95067.94;5075295;28;20040;-71
2023/01/13 11:37:02;;;;;;;12.90;10.10;;;;;;;6.24;63.23;95076.22;5072749;28;20039;-71
2023/01/13 11:39:46;;;;;;;8.45;6.78;;;;;;;6.20;62.65;95079.91;5106508;27;20058;-71
2023/01/13 11:42:24;;;;;;;10.77;7.45;;;;;;;6.09;62.90;95064.25;5106629;28;20024;-71
2023/01/13 11:45:04;;;;;;;9.98;7.80;;;;;;;6.23;63.01;95074.56;5107273;27;20040;-71
2023/01/13 11:47:29;;;;;;;15.63;10.88;;;;;;;6.22;63.19;95077.25;5089199;28;20559;-71
2023/01/13 11:49:55;;;;;;;12.45;9.45;;;;;;;6.23;62.90;95069.41;5106312;28;20024;-71
2023/01/13 11:52:21;;;;;;;8.95;7.35;;;;;;;6.08;62.29;95062.63;5110731;28;20405;-70
2023/01/13 11:54:59;;;;;;;12.70;9.45;;;;;;;6.16;62.72;95075.88;5111483;28;20477;-71
2023/01/13 11:57:42;;;;;;;12.93;10.10;;;;;;;6.21;62.62;95060.09;5105719;27;20024;-71
2023/01/13 12:00:39;;;;;;;9.98;8.02;;;;;;;6.34;62.28;95065.34;5092076;27;20047;-71
2023/01/13 12:03:16;;;;;;;9.10;6.55;;;;;;;6.31;62.23;95071.50;5106881;27;20040;-71
2023/01/13 12:05:47;;;;;;;5.88;5.00;;;;;;;6.17;61.64;95041.41;5108023;27;20032;-71
2023/01/13 12:08:37;;;;;;;6.57;4.80;;;;;;;6.39;61.80;95066.72;5106318;27;20036;-71
2023/01/13 12:11:26;;;;;;;4.93;3.90;;;;;;;6.48;61.76;95067.88;5108066;28;20217;-71
2023/01/13 12:14:10;;;;;;;8.45;5.45;;;;;;;6.42;62.03;95052.78;5100647;27;20047;-71
2023/01/13 12:16:36;;;;;;;7.35;5.53;;;;;;;6.33;61.92;95043.88;5088297;28;20036;-71
2023/01/13 12:19:29;;;;;;;8.18;4.22;;;;;;;6.30;61.15;95067.28;5088393;28;20089;-71
2023/01/13 12:22:10;;;;;;;5.95;3.92;;;;;;;6.29;61.28;95047.53;5108378;27;20035;-71
2023/01/13 12:24:56;;;;;;;5.28;3.90;;;;;;;6.36;61.31;95055.75;5090674;28;20081;-71
2023/01/13 12:27:48;;;;;;;4.50;3.60;;;;;;;6.42;61.36;95063.94;5103773;28;20184;-71
2023/01/13 12:30:42;;;;;;;6.32;4.38;;;;;;;6.43;61.78;95060.41;5104456;28;20135;-71
2023/01/13 12:33:24;;;;;;;11.23;5.93;;;;;;;6.44;61.89;95066.44;5081141;28;20070;-71